Time;durP1;ratioP1;P1;durP2;ratioP2;P2;SDS_P1;SDS_P2;PMS_P1;PMS_P2;Temp;Humidity;BMP_temperature;BMP_pressure;BME280_temperature;BME280_humidity;BME280_pressure;Samples;Min_cycle;Max_cycle;Signal;HPM_P1;HPM_P2
2022/05/04 00:02:24;;;;;;;;;;;7.90;99.90;;;;;;5026755;28;19921;-73
2022/05/04 00:04:50;;;;;;;;;;;7.90;99.90;;;;;;5030478;28;19921;-74
2022/05/04 00:07:15;;;;;;;;;;;7.90;99.90;;;;;;5031639;28;19937;-74
2022/05/04 00:09:41;;;;;;;;;;;7.90;99.90;;;;;;5027300;28;20330;-74
2022/05/04 00:12:07;;;;;;;;;;;7.90;99.90;;;;;;5028341;28;19928;-73
2022/05/04 00:14:32;;;;;;;;;;;7.90;99.90;;;;;;5029370;28;19925;-75
2022/05/04 00:16:58;;;;;;;;;;;7.90;99.90;;;;;;5030937;28;21030;-74
2022/05/04 00:19:23;;;;;;;;;;;7.90;99.90;;;;;;5028831;28;19932;-73
2022/05/04 00:21:48;;;;;;;;;;;7.90;99.90;;;;;;5028006;28;19935;-73
2022/05/04 00:24:19;;;;;;;;;;;7.90;99.90;;;;;;5029364;28;19963;-73
2022/05/04 00:26:45;;;;;;;;;;;7.90;99.90;;;;;;5030062;28;19921;-73
2022/05/04 00:29:11;;;;;;;;;;;7.90;99.90;;;;;;5028796;28;19921;-73
2022/05/04 00:31:36;;;;;;;;;;;7.90;99.90;;;;;;5027915;28;19920;-73
2022/05/04 00:34:02;;;;;;;;;;;7.90;99.90;;;;;;5027920;28;19921;-74
2022/05/04 00:36:27;;;;;;;;;;;7.90;99.90;;;;;;5029725;28;19936;-73
2022/05/04 00:38:53;;;;;;;;;;;7.90;99.90;;;;;;5029207;28;19921;-73
2022/05/04 00:41:18;;;;;;;;;;;8.00;99.90;;;;;;5029753;28;20267;-73
2022/05/04 00:43:50;;;;;;;;;;;8.00;99.90;;;;;;5027521;28;20394;-73
2022/05/04 00:46:15;;;;;;;;;;;7.90;99.90;;;;;;5027453;28;20005;-74
2022/05/04 00:48:40;;;;;;;;;;;7.90;99.90;;;;;;5028287;28;20423;-74
2022/05/04 00:51:06;;;;;;;;;;;7.90;99.90;;;;;;5029542;28;19928;-73
2022/05/04 00:53:32;;;;;;;;;;;7.90;99.90;;;;;;5028553;28;20327;-74
2022/05/04 00:55:59;;;;;;;;;;;8.00;99.90;;;;;;5026747;28;20015;-73
2022/05/04 01:01:09;;;;;;;;;;;7.90;99.90;;;;;;5029207;28;19925;-74
2022/05/04 01:03:37;;;;;;;;;;;7.90;99.90;;;;;;5026650;28;19983;-74
2022/05/04 01:06:02;;;;;;;;;;;7.90;99.90;;;;;;5029130;28;19921;-72
2022/05/04 01:08:28;;;;;;;;;;;7.90;99.90;;;;;;5028164;28;20091;-72
2022/05/04 01:10:53;;;;;;;;;;;8.00;99.90;;;;;;5029436;28;19929;-73
2022/05/04 01:13:20;;;;;;;;;;;8.00;99.90;;;;;;5027487;28;19928;-74
2022/05/04 01:15:46;;;;;;;;;;;8.00;99.90;;;;;;5027677;28;20438;-72
2022/05/04 01:18:11;;;;;;;;;;;8.00;99.90;;;;;;5020479;28;19929;-73
2022/05/04 01:20:37;;;;;;;;;;;8.00;99.90;;;;;;5025240;28;20307;-71
2022/05/04 01:23:02;;;;;;;;;;;8.00;99.90;;;;;;5021451;28;19925;-73
2022/05/04 01:25:28;;;;;;;;;;;8.00;99.90;;;;;;5029087;28;19932;-73
2022/05/04 01:27:55;;;;;;;;;;;8.00;99.90;;;;;;5024310;28;19940;-73
2022/05/04 01:30:21;;;;;;;;;;;8.00;99.90;;;;;;5028779;28;19925;-74
2022/05/04 01:32:47;;;;;;;;;;;8.00;99.90;;;;;;5027574;28;19928;-74
2022/05/04 01:35:14;;;;;;;;;;;8.00;99.90;;;;;;5028802;28;19921;-74
2022/05/04 01:37:39;;;;;;;;;;;8.00;99.90;;;;;;5025202;28;20438;-73
2022/05/04 01:40:05;;;;;;;;;;;7.90;99.90;;;;;;5027140;28;21367;-74
2022/05/04 01:42:30;;;;;;;;;;;7.70;99.90;;;;;;5009287;28;19967;-73
2022/05/04 01:44:56;;;;;;;;;;;7.80;99.90;;;;;;5027074;28;19986;-74
2022/05/04 01:47:21;;;;;;;;;;;7.80;99.90;;;;;;5027951;28;19978;-73
2022/05/04 01:49:47;;;;;;;;;;;7.90;99.90;;;;;;5026140;28;20437;-73
2022/05/04 01:52:12;;;;;;;;;;;7.90;99.90;;;;;;5028301;28;19921;-73
2022/05/04 01:54:38;;;;;;;;;;;7.70;99.90;;;;;;5027095;28;20004;-74
2022/05/04 01:57:04;;;;;;;;;;;7.60;99.90;;;;;;5025669;28;20425;-74
2022/05/04 01:59:29;;;;;;;;;;;7.60;99.90;;;;;;5026550;28;19921;-75
2022/05/04 02:01:55;;;;;;;;;;;7.70;99.90;;;;;;5025076;28;20294;-74
2022/05/04 02:04:21;;;;;;;;;;;7.70;99.90;;;;;;5026666;28;19920;-73
2022/05/04 02:06:47;;;;;;;;;;;7.70;99.90;;;;;;5029033;28;19921;-73
2022/05/04 02:09:13;;;;;;;;;;;7.70;99.90;;;;;;5026337;28;20394;-73
2022/05/04 02:11:38;;;;;;;;;;;7.70;99.90;;;;;;5027511;28;20003;-74
2022/05/04 02:14:04;;;;;;;;;;;7.70;99.90;;;;;;5026233;28;20383;-73
2022/05/04 02:16:30;;;;;;;;;;;7.80;99.90;;;;;;5028734;28;19944;-75
2022/05/04 02:18:56;;;;;;;;;;;7.80;99.90;;;;;;5014468;28;19925;-74
2022/05/04 02:21:22;;;;;;;;;;;7.80;99.90;;;;;;5028743;28;20244;-73
2022/05/04 02:23:47;;;;;;;;;;;7.90;99.90;;;;;;5022916;28;19921;-74
2022/05/04 02:26:12;;;;;;;;;;;7.90;99.90;;;;;;5026277;28;20298;-73
2022/05/04 02:28:38;;;;;;;;;;;7.90;99.90;;;;;;5028068;28;19968;-74
2022/05/04 02:31:04;;;;;;;;;;;7.90;99.90;;;;;;5026531;28;20383;-74
2022/05/04 02:33:29;;;;;;;;;;;7.90;99.90;;;;;;5026886;28;19920;-73
2022/05/04 02:38:40;;;;;;;;;;;7.80;99.90;;;;;;5025179;28;19925;-74
2022/05/04 02:41:05;;;;;;;;;;;7.80;99.90;;;;;;5028709;28;20004;-75
2022/05/04 02:43:32;;;;;;;;;;;7.70;99.90;;;;;;5027543;28;19956;-74
2022/05/04 02:45:57;;;;;;;;;;;7.80;99.90;;;;;;5027656;28;19928;-74
2022/05/04 02:48:23;;;;;;;;;;;7.80;99.90;;;;;;5025304;28;20458;-74
2022/05/04 02:50:48;;;;;;;;;;;7.80;99.90;;;;;;5026301;28;19921;-73
2022/05/04 02:53:14;;;;;;;;;;;7.70;99.90;;;;;;5025140;28;19921;-74
2022/05/04 02:55:39;;;;;;;;;;;7.70;99.90;;;;;;5026458;28;20445;-74
2022/05/04 02:58:05;;;;;;;;;;;7.80;99.90;;;;;;5027532;28;20386;-74
2022/05/04 03:00:31;;;;;;;;;;;7.70;99.90;;;;;;5025889;28;19967;-73
2022/05/04 03:02:56;;;;;;;;;;;7.70;99.90;;;;;;5018220;28;19928;-74
2022/05/04 03:05:22;;;;;;;;;;;7.70;99.90;;;;;;5026889;28;20425;-73
2022/05/04 03:07:47;;;;;;;;;;;7.70;99.90;;;;;;5027479;28;19921;-74
2022/05/04 03:10:16;;;;;;;;;;;7.70;99.90;;;;;;5028270;28;20302;-75
2022/05/04 03:12:41;;;;;;;;;;;7.70;99.90;;;;;;5026359;28;20398;-75
2022/05/04 03:15:07;;;;;;;;;;;7.70;99.90;;;;;;5023036;28;19968;-75
2022/05/04 03:17:33;;;;;;;;;;;7.70;99.90;;;;;;5026197;28;19944;-75
2022/05/04 03:19:59;;;;;;;;;;;7.70;99.90;;;;;;5026294;28;19978;-74
2022/05/04 03:22:25;;;;;;;;;;;7.80;99.90;;;;;;5025138;28;20120;-75
2022/05/04 03:24:51;;;;;;;;;;;7.70;99.90;;;;;;5025546;28;19925;-73
2022/05/04 03:27:16;;;;;;;;;;;7.80;99.90;;;;;;5027392;28;20272;-73
2022/05/04 03:29:43;;;;;;;;;;;7.70;99.90;;;;;;5027840;28;20301;-73
2022/05/04 03:32:08;;;;;;;;;;;7.60;99.90;;;;;;5024623;28;19925;-74
2022/05/04 03:34:34;;;;;;;;;;;7.70;99.90;;;;;;5007962;28;19944;-75
2022/05/04 03:37:00;;;;;;;;;;;7.60;99.90;;;;;;5027901;28;19921;-74
2022/05/04 03:39:29;;;;;;;;;;;7.60;99.90;;;;;;5029774;28;19921;-74
2022/05/04 03:41:55;;;;;;;;;;;7.60;99.90;;;;;;5031850;28;19927;-74
2022/05/04 03:44:20;;;;;;;;;;;7.60;99.90;;;;;;5029818;28;20007;-74
2022/05/04 03:46:50;;;;;;;;;;;7.60;99.90;;;;;;5007947;28;19917;-74
2022/05/04 03:49:16;;;;;;;;;;;7.70;99.90;;;;;;5028249;28;19921;-74
2022/05/04 03:51:42;;;;;;;;;;;7.70;99.90;;;;;;5028385;28;20031;-74
2022/05/04 03:54:08;;;;;;;;;;;7.60;99.90;;;;;;5011737;28;20004;-74
2022/05/04 03:56:33;;;;;;;;;;;7.60;99.90;;;;;;5031415;28;19921;-74
2022/05/04 03:58:59;;;;;;;;;;;7.60;99.90;;;;;;5027218;28;19921;-74
2022/05/04 04:01:25;;;;;;;;;;;7.60;99.90;;;;;;5025862;28;19928;-74
2022/05/04 04:03:50;;;;;;;;;;;7.60;99.90;;;;;;5028306;28;19987;-73
2022/05/04 04:06:16;;;;;;;;;;;7.70;99.90;;;;;;5031170;28;19921;-73
2022/05/04 04:08:41;;;;;;;;;;;7.70;99.90;;;;;;5025904;28;20397;-73
2022/05/04 04:11:07;;;;;;;;;;;7.70;99.90;;;;;;5029910;28;20029;-73
2022/05/04 04:13:32;;;;;;;;;;;7.70;99.90;;;;;;5029279;28;19921;-74
2022/05/04 04:15:58;;;;;;;;;;;7.60;99.90;;;;;;5029289;28;19925;-74
2022/05/04 04:18:24;;;;;;;;;;;7.60;99.90;;;;;;5011344;28;20026;-74
2022/05/04 04:23:34;;;;;;;;;;;7.70;99.90;;;;;;5024551;28;19921;-74
2022/05/04 04:26:00;;;;;;;;;;;7.60;99.90;;;;;;5028610;28;19928;-74
2022/05/04 04:28:25;;;;;;;;;;;7.70;99.90;;;;;;5027604;28;20306;-74
2022/05/04 04:30:51;;;;;;;;;;;7.70;99.90;;;;;;5027797;28;19967;-74
2022/05/04 04:33:17;;;;;;;;;;;7.70;99.90;;;;;;5025362;28;19940;-73
2022/05/04 04:35:43;;;;;;;;;;;7.70;99.90;;;;;;5026846;28;19921;-74
2022/05/04 04:38:08;;;;;;;;;;;7.70;99.90;;;;;;5025164;28;19924;-73
2022/05/04 04:40:34;;;;;;;;;;;7.70;99.90;;;;;;5026569;28;19921;-73
2022/05/04 04:43:02;;;;;;;;;;;7.70;99.90;;;;;;5027940;28;19928;-74
2022/05/04 04:45:28;;;;;;;;;;;7.60;99.90;;;;;;5029307;28;20394;-77
2022/05/04 04:47:53;;;;;;;;;;;7.60;99.90;;;;;;5026211;28;19921;-77
2022/05/04 04:50:19;;;;;;;;;;;7.60;99.90;;;;;;5027483;28;19979;-73
2022/05/04 04:52:45;;;;;;;;;;;7.60;99.90;;;;;;5029698;28;19921;-73
2022/05/04 04:55:11;;;;;;;;;;;7.70;99.90;;;;;;5029417;28;20330;-72
2022/05/04 04:57:37;;;;;;;;;;;7.70;99.90;;;;;;5027672;28;19921;-73
2022/05/04 05:00:06;;;;;;;;;;;7.80;99.90;;;;;;5028084;28;19921;-73
2022/05/04 05:02:34;;;;;;;;;;;7.80;99.90;;;;;;5026082;28;19921;-72
2022/05/04 05:04:59;;;;;;;;;;;7.90;99.90;;;;;;5028686;28;19921;-72
2022/05/04 05:07:25;;;;;;;;;;;7.90;99.90;;;;;;5024631;28;19928;-72
2022/05/04 05:09:50;;;;;;;;;;;7.90;99.90;;;;;;5027705;28;19921;-72
2022/05/04 05:12:16;;;;;;;;;;;7.90;99.90;;;;;;5028916;28;19966;-73
2022/05/04 05:17:27;;;;;;;;;;;7.80;99.90;;;;;;5025813;28;19967;-73
2022/05/04 05:19:52;;;;;;;;;;;7.80;99.90;;;;;;5028847;28;19921;-73
2022/05/04 05:22:18;;;;;;;;;;;7.80;99.90;;;;;;5029224;28;20445;-72
2022/05/04 05:24:44;;;;;;;;;;;7.90;99.90;;;;;;5028013;28;20008;-73
2022/05/04 05:27:10;;;;;;;;;;;7.90;99.90;;;;;;5027763;28;20004;-73
2022/05/04 05:29:35;;;;;;;;;;;7.90;99.90;;;;;;5027163;28;20448;-73
2022/05/04 05:32:01;;;;;;;;;;;7.90;99.90;;;;;;5026194;28;20449;-73
2022/05/04 05:34:28;;;;;;;;;;;7.80;99.90;;;;;;5025249;28;19920;-74
2022/05/04 05:36:54;;;;;;;;;;;7.90;99.90;;;;;;5028490;28;20329;-73
2022/05/04 05:39:19;;;;;;;;;;;8.00;99.90;;;;;;5028819;28;20015;-73
2022/05/04 05:41:45;;;;;;;;;;;8.10;99.90;;;;;;5027504;28;20390;-73
2022/05/04 05:44:10;;;;;;;;;;;8.20;99.90;;;;;;5025658;28;19921;-73
2022/05/04 05:46:36;;;;;;;;;;;8.20;99.90;;;;;;5026577;28;19925;-73
2022/05/04 05:49:01;;;;;;;;;;;8.20;99.90;;;;;;5023619;28;19928;-73
2022/05/04 05:51:27;;;;;;;;;;;8.10;99.90;;;;;;5028298;28;19924;-73
2022/05/04 05:53:52;;;;;;;;;;;8.10;99.90;;;;;;5027665;28;19921;-73
2022/05/04 05:56:18;;;;;;;;;;;8.20;99.90;;;;;;5026865;28;20016;-72
2022/05/04 05:58:43;;;;;;;;;;;8.10;99.90;;;;;;5026406;28;19920;-72
2022/05/04 06:01:09;;;;;;;;;;;8.10;99.90;;;;;;5026181;28;20399;-73
2022/05/04 06:03:34;;;;;;;;;;;8.20;99.90;;;;;;5025484;28;20447;-73
2022/05/04 06:05:59;;;;;;;;;;;8.30;99.90;;;;;;5027372;28;19928;-72
2022/05/04 06:08:25;;;;;;;;;;;8.30;99.90;;;;;;5025901;28;19937;-73
2022/05/04 06:10:50;;;;;;;;;;;8.40;99.90;;;;;;5025266;28;19920;-73
2022/05/04 06:13:16;;;;;;;;;;;8.40;99.90;;;;;;5026382;28;19964;-73
2022/05/04 06:15:41;;;;;;;;;;;8.40;99.90;;;;;;5025310;28;19929;-74
2022/05/04 06:18:07;;;;;;;;;;;8.30;99.90;;;;;;5022769;28;19974;-74
2022/05/04 06:20:33;;;;;;;;;;;8.50;99.90;;;;;;5027075;28;19968;-72
2022/05/04 06:22:58;;;;;;;;;;;8.40;99.90;;;;;;5024883;28;19925;-75
2022/05/04 06:25:24;;;;;;;;;;;8.50;99.90;;;;;;5026213;28;19928;-76
2022/05/04 06:27:49;;;;;;;;;;;8.50;99.90;;;;;;5022544;28;20286;-75
2022/05/04 06:35:43;;;;;;;;;;;8.50;99.90;;;;;;5027217;28;20003;-74
2022/05/04 06:38:10;;;;;;;;;;;8.60;99.90;;;;;;5027071;28;20020;-76
2022/05/04 06:40:36;;;;;;;;;;;8.60;99.90;;;;;;5027240;28;19956;-75
2022/05/04 06:43:01;;;;;;;;;;;8.70;99.90;;;;;;5027023;28;19956;-74
2022/05/04 06:45:27;;;;;;;;;;;8.80;99.90;;;;;;5027438;28;20033;-75
2022/05/04 06:47:52;;;;;;;;;;;8.80;99.90;;;;;;5027060;28;20280;-75
2022/05/04 06:50:18;;;;;;;;;;;8.90;99.90;;;;;;5026115;28;19927;-75
2022/05/04 06:52:43;;;;;;;;;;;9.00;99.90;;;;;;5007783;28;20549;-75
2022/05/04 06:55:09;;;;;;;;;;;9.00;99.90;;;;;;5026917;28;20000;-74
2022/05/04 06:57:35;;;;;;;;;;;9.10;99.90;;;;;;5024958;28;20434;-75
2022/05/04 07:00:04;;;;;;;;;;;8.80;99.90;;;;;;5023213;28;19925;-74
2022/05/04 07:04:16;;;;;;;18.67;2.60;;;10.20;99.90;;;;;;5067953;27;20385;-74
2022/05/04 07:06:41;;;;;;;8.47;1.87;;;9.20;99.90;;;;;;5059010;28;20424;-75
2022/05/04 07:09:07;;;;;;;8.30;2.10;;;9.50;99.90;;;;;;5043408;28;20425;-75
2022/05/04 07:11:33;;;;;;;5.67;2.10;;;9.60;99.90;;;;;;5042011;28;20947;-76
2022/05/04 07:13:58;;;;;;;7.25;2.08;;;9.40;99.90;;;;;;5031503;28;20483;-76
2022/05/04 07:16:24;;;;;;;11.23;2.42;;;10.10;99.90;;;;;;5040669;28;20491;-76
2022/05/04 07:18:49;;;;;;;10.03;1.77;;;9.60;99.90;;;;;;5033818;28;20430;-76
2022/05/04 07:21:15;;;;;;;7.33;2.00;;;9.80;99.90;;;;;;5069733;28;20980;-76
2022/05/04 07:23:40;;;;;;;8.07;1.67;;;9.60;99.90;;;;;;5036159;28;20434;-75
2022/05/04 07:26:06;;;;;;;8.43;2.55;;;9.70;99.90;;;;;;5076487;28;20414;-76
2022/05/04 07:28:32;;;;;;;6.82;2.00;;;9.90;99.90;;;;;;5034552;28;20937;-75
2022/05/04 07:30:57;;;;;;;9.17;3.03;;;10.00;99.90;;;;;;5073780;28;20827;-75
2022/05/04 07:33:23;;;;;;;8.17;1.80;;;10.10;99.90;;;;;;5038796;28;20426;-76
2022/05/04 07:35:48;;;;;;;7.18;2.75;;;10.10;99.90;;;;;;5028473;28;20492;-77
2022/05/04 07:38:14;;;;;;;7.22;1.80;;;10.10;99.90;;;;;;5024337;28;20438;-74
2022/05/04 07:43:24;;;;;;;5.75;1.95;;;10.20;99.90;;;;;;5042139;28;20928;-74
2022/05/04 07:45:49;;;;;;;5.05;2.00;;;10.10;99.90;;;;;;5042961;28;20509;-74
2022/05/04 07:48:15;;;;;;;10.30;1.83;;;10.20;99.90;;;;;;5041560;28;20426;-74
2022/05/04 07:50:40;;;;;;;9.10;2.27;;;10.00;99.90;;;;;;5031556;28;20418;-74
2022/05/04 07:53:06;;;;;;;9.73;2.80;;;9.90;99.90;;;;;;5051840;28;20464;-73
2022/05/04 07:55:32;;;;;;;8.63;2.33;;;10.30;99.90;;;;;;5039960;28;20914;-74
2022/05/04 07:57:58;;;;;;;7.63;1.80;;;10.40;99.90;;;;;;5032310;28;20468;-74
2022/05/04 08:05:52;;;;;;;9.15;2.00;;;10.50;99.90;;;;;;5093664;28;20786;-74
2022/05/04 08:08:18;;;;;;;7.17;1.53;;;10.60;99.90;;;;;;5086699;28;20435;-74
2022/05/04 08:10:43;;;;;;;5.65;1.50;;;10.80;99.90;;;;;;5062593;28;20493;-74
2022/05/04 08:13:09;;;;;;;8.25;1.75;;;10.90;99.90;;;;;;5094818;28;20433;-74
2022/05/04 08:15:35;;;;;;;7.57;2.05;;;10.50;99.90;;;;;;5050037;28;20487;-74
2022/05/04 08:18:02;;;;;;;11.57;3.43;;;10.40;99.90;;;;;;5077698;28;20900;-75
2022/05/04 08:20:28;;;;;;;5.60;1.90;;;10.60;99.90;;;;;;5041919;28;20431;-75
2022/05/04 08:22:54;;;;;;;8.10;2.05;;;10.50;99.90;;;;;;5055263;28;20432;-75
2022/05/04 08:25:20;;;;;;;7.35;2.42;;;10.20;99.90;;;;;;5031249;28;20804;-75
2022/05/04 08:27:46;;;;;;;5.60;1.60;;;10.70;99.90;;;;;;5043396;28;20461;-76
2022/05/04 08:30:11;;;;;;;11.57;2.53;;;10.30;99.90;;;;;;5081095;28;20429;-75
2022/05/04 08:32:37;;;;;;;9.40;2.23;;;10.40;99.90;;;;;;5054274;28;20500;-75
2022/05/04 08:35:03;;;;;;;6.50;1.80;;;10.80;99.90;;;;;;5050175;28;20431;-74
2022/05/04 08:37:29;;;;;;;8.52;2.10;;;10.70;99.90;;;;;;5076168;28;20513;-74
2022/05/04 08:39:55;;;;;;;7.95;1.73;;;11.10;99.90;;;;;;5063292;28;20438;-75
2022/05/04 08:42:21;;;;;;;5.70;1.77;;;11.10;99.90;;;;;;5047671;28;20456;-75
2022/05/04 08:44:51;;;;;;;10.32;1.65;;;10.80;99.90;;;;;;5041998;28;20469;-75
2022/05/04 08:47:21;;;;;;;9.32;2.22;;;11.00;99.90;;;;;;5045886;28;20444;-74
2022/05/04 08:49:48;;;;;;;8.43;2.83;;;11.00;99.90;;;;;;5061646;28;20454;-75
2022/05/04 08:52:16;;;;;;;9.05;2.28;;;11.40;99.90;;;;;;5048094;28;20516;-74
2022/05/04 08:54:45;;;;;;;9.65;2.25;;;12.00;99.90;;;;;;5081753;28;20915;-74
2022/05/04 08:57:11;;;;;;;6.65;1.88;;;11.80;99.90;;;;;;5047201;28;20437;-74
2022/05/04 08:59:37;;;;;;;8.02;2.05;;;12.50;99.90;;;;;;5056544;28;20428;-75
2022/05/04 09:02:03;;;;;;;6.15;1.40;;;13.00;99.90;;;;;;5040351;28;20443;-75
2022/05/04 09:04:31;;;;;;;10.88;2.38;;;12.30;99.90;;;;;;5042821;28;20461;-75
2022/05/04 09:07:00;;;;;;;8.10;1.90;;;12.20;99.90;;;;;;5045711;28;20422;-74
2022/05/04 09:09:26;;;;;;;7.25;1.83;;;12.60;99.90;;;;;;5041124;28;20369;-74
2022/05/04 09:11:51;;;;;;;8.75;1.83;;;12.40;99.90;;;;;;5056180;28;20052;-75
2022/05/04 09:14:25;;;;;;;8.32;2.58;;;11.40;99.90;;;;;;5047823;28;20068;-75
2022/05/04 09:16:52;;;;;;;7.50;2.20;;;11.30;99.90;;;;;;5053363;28;20115;-75
2022/05/04 09:19:18;;;;;;;6.35;1.55;;;11.40;99.90;;;;;;5044088;28;20555;-74
2022/05/04 09:21:49;;;;;;;8.00;2.22;;;11.70;99.90;;;;;;5060447;28;20073;-75
2022/05/04 09:24:15;;;;;;;;;;;12.20;99.90;;;;;;5073383;28;20098;-71
2022/05/04 09:26:42;;;;;;;7.25;2.15;;;11.50;99.90;;;;;;5045989;28;19920;-75
2022/05/04 09:29:11;;;;;;;9.00;1.58;;;11.70;99.90;;;;;;5053450;28;20045;-75
2022/05/04 09:31:39;;;;;;;5.72;1.40;;;11.50;99.90;;;;;;5031393;28;20080;-75
2022/05/04 09:34:08;;;;;;;6.72;2.03;;;11.30;99.90;;;;;;5045082;28;20076;-74
2022/05/04 09:45:12;;;;;;;10.18;2.72;;;11.30;99.90;;;;;;5068264;28;20045;-74
2022/05/04 09:47:43;;;;;;;6.53;1.77;;;11.10;99.90;;;;;;5061031;28;20367;-74
2022/05/04 09:50:10;;;;;;;16.58;5.03;;;11.00;99.90;;;;;;5045010;28;20076;-76
2022/05/04 09:52:50;;;;;;;7.75;2.00;;;11.10;99.90;;;;;;5091557;28;20041;-74
2022/05/04 09:55:24;;;;;;;5.85;2.00;;;10.60;99.90;;;;;;5052084;28;20052;-75
2022/05/04 09:57:51;;;;;;;5.68;2.03;;;10.90;99.90;;;;;;5047061;28;20029;-75
2022/05/04 10:00:19;;;;;;;8.73;2.00;;;11.40;99.90;;;;;;5048658;28;20037;-75
2022/05/04 10:02:46;;;;;;;9.18;3.20;;;11.70;99.90;;;;;;5076959;28;20045;-74
2022/05/04 10:05:13;;;;;;;13.10;3.72;;;12.10;99.90;;;;;;5039533;28;20510;-75
2022/05/04 10:07:41;;;;;;;7.63;2.78;;;12.10;99.90;;;;;;5073093;28;20040;-75
2022/05/04 10:10:09;;;;;;;7.70;2.45;;;12.50;99.90;;;;;;5060815;28;20053;-75
2022/05/04 10:12:40;;;;;;;7.40;1.70;;;11.70;99.90;;;;;;5047696;28;20180;-74
2022/05/04 10:15:10;;;;;;;9.85;1.80;;;11.40;99.90;;;;;;5065803;28;20044;-74
2022/05/04 10:17:40;;;;;;;5.35;1.55;;;11.70;99.90;;;;;;5055724;28;20061;-74
2022/05/04 10:20:21;;;;;;;6.47;1.40;;;11.90;99.90;;;;;;5063839;28;20047;-74
2022/05/04 10:23:01;;;;;;;13.38;3.58;;;11.80;99.90;;;;;;5043735;28;20052;-74
2022/05/04 10:25:32;;;;;;;16.23;4.20;;;11.80;99.90;;;;;;5075959;28;20060;-73
2022/05/04 10:28:12;;;;;;;14.18;3.30;;;11.90;99.90;;;;;;5043877;28;20086;-73
2022/05/04 10:30:55;;;;;;;7.95;2.28;;;11.90;99.90;;;;;;5039429;28;20047;-76
2022/05/04 10:33:39;;;;;;;8.98;2.55;;;12.40;99.90;;;;;;5028606;28;20116;-76
2022/05/04 10:36:20;;;;;;;7.03;1.88;;;12.10;99.90;;;;;;5071056;28;20072;-75
2022/05/04 10:38:55;;;;;;;7.72;2.05;;;12.40;99.90;;;;;;5046981;28;20395;-75
2022/05/04 10:41:35;;;;;;;7.15;2.50;;;12.30;99.90;;;;;;5071002;28;20068;-75
2022/05/04 10:44:01;;;;;;;;;;;12.20;99.90;;;;;;5078673;28;20475;-75
2022/05/04 10:46:30;;;;;;;12.85;2.60;;;12.10;99.90;;;;;;5044950;28;20330;-76
2022/05/04 10:49:04;;;;;;;5.47;2.72;;;11.60;99.90;;;;;;5047069;28;20052;-75
2022/05/04 10:51:33;;;;;;;7.45;1.80;;;11.10;99.90;;;;;;5045859;28;20041;-74
2022/05/04 10:54:18;;;;;;;7.78;2.58;;;11.20;99.90;;;;;;5092778;28;20123;-74
2022/05/04 10:56:48;;;;;;;5.88;2.08;;;11.70;99.90;;;;;;5029602;28;20052;-74
2022/05/04 10:59:30;;;;;;;11.95;2.30;;;11.60;99.90;;;;;;5060103;28;20057;-76
2022/05/04 11:02:00;;;;;;;6.03;2.33;;;12.10;99.90;;;;;;5073020;28;20041;-73
2022/05/04 11:04:26;;;;;;;6.90;2.50;;;12.20;99.90;;;;;;5076132;28;20053;-75
2022/05/04 11:07:02;;;;;;;14.23;3.60;;;12.40;99.90;;;;;;5092212;28;20126;-75
2022/05/04 11:09:31;;;;;;;7.15;2.22;;;12.10;99.90;;;;;;5046793;28;20464;-74
2022/05/04 11:12:02;;;;;;;6.90;1.92;;;12.00;99.90;;;;;;5042524;28;20108;-75
2022/05/04 11:14:28;;;;;;;6.65;1.85;;;12.40;99.90;;;;;;5078275;28;20060;-74
2022/05/04 11:16:56;;;;;;;6.57;1.92;;;12.70;99.90;;;;;;5054974;28;20076;-76
2022/05/04 11:19:25;;;;;;;6.85;2.33;;;12.80;99.90;;;;;;5046076;28;20348;-76
2022/05/04 11:21:50;;;;;;;14.20;3.03;;;13.10;99.90;;;;;;5093768;28;20055;-76
2022/05/04 11:24:17;;;;;;;6.53;2.50;;;13.00;99.90;;;;;;5062404;28;20038;-75
2022/05/04 11:26:44;;;;;;;8.50;3.20;;;13.20;99.90;;;;;;5092192;28;20495;-76
2022/05/04 11:29:16;;;;;;;6.15;2.60;;;13.20;99.90;;;;;;5046920;28;20403;-76
2022/05/04 11:31:47;;;;;;;7.88;2.38;;;13.30;99.90;;;;;;5033463;28;20049;-75
2022/05/04 11:34:17;;;;;;;10.20;3.40;;;13.10;99.90;;;;;;5043879;28;20116;-75
2022/05/04 11:36:47;;;;;;;12.18;2.95;;;13.30;99.90;;;;;;5051092;28;20041;-76
2022/05/04 11:39:18;;;;;;;7.78;3.13;;;13.30;99.90;;;;;;5046412;28;20529;-75
2022/05/04 11:41:44;;;;;;;;;;;12.90;99.90;;;;;;5044856;28;20054;-74
2022/05/04 11:44:10;;;;;;;;;;;12.70;99.90;;;;;;5044133;28;19967;-75
2022/05/04 11:46:35;;;;;;;;;;;12.80;99.90;;;;;;5061455;28;19956;-75
2022/05/04 11:49:01;;;;;;;;;;;12.60;99.90;;;;;;5046835;28;20011;-75
2022/05/04 11:51:26;;;;;;;;;;;12.80;99.90;;;;;;5066858;28;20006;-76
2022/05/04 11:53:52;;;;;;;;;;;12.60;99.90;;;;;;5069431;28;20288;-76
2022/05/04 11:56:17;;;;;;;;;;;12.40;99.90;;;;;;5065824;28;19942;-75
2022/05/04 11:58:43;;;;;;;;;;;12.30;99.90;;;;;;5082846;28;19921;-75
2022/05/04 12:01:09;;;;;;;;;;;12.00;99.90;;;;;;5096841;28;19931;-76
2022/05/04 12:03:37;;;;;;;;;;;12.40;99.90;;;;;;5043699;28;19982;-74
2022/05/04 12:06:04;;;;;;;;;;;12.20;99.90;;;;;;5036883;28;20329;-76
2022/05/04 12:08:31;;;;;;;;;;;12.70;99.90;;;;;;5059739;28;19920;-77
2022/05/04 12:10:56;;;;;;;;;;;13.40;99.90;;;;;;5050340;28;19921;-75
2022/05/04 12:13:23;;;;;;;;;;;13.50;99.90;;;;;;5049516;28;19925;-75
2022/05/04 12:15:50;;;;;;;;;;;13.50;99.90;;;;;;5082190;28;19921;-76
2022/05/04 12:18:15;;;;;;;;;;;13.90;99.90;;;;;;5070751;28;19924;-75
2022/05/04 12:20:44;;;;;;;;;;;13.50;99.90;;;;;;5064937;28;19920;-75
2022/05/04 12:23:10;;;;;;;;;;;13.70;99.90;;;;;;5049707;28;20275;-76
2022/05/04 12:25:35;;;;;;;;;;;13.60;99.90;;;;;;5083206;28;19966;-75
2022/05/04 12:28:01;;;;;;;;;;;13.40;99.90;;;;;;5050131;28;20259;-74
2022/05/04 12:33:12;;;;;;;;;;;13.10;99.90;;;;;;5048065;28;19994;-75
2022/05/04 12:35:38;;;;;;;;;;;13.60;99.90;;;;;;5049736;28;19920;-75
2022/05/04 12:38:05;;;;;;;;;;;13.60;99.90;;;;;;5050046;28;19921;-75
2022/05/04 12:40:31;;;;;;;;;;;13.40;99.90;;;;;;5082222;28;20312;-75
2022/05/04 12:42:59;;;;;;;;;;;13.80;99.90;;;;;;5085286;28;19975;-75
2022/05/04 12:45:24;;;;;;;;;;;13.60;99.90;;;;;;5052397;28;19921;-76
2022/05/04 12:47:51;;;;;;;;;;;13.30;99.90;;;;;;5076696;28;19952;-76
2022/05/04 12:50:16;;;;;;;;;;;13.40;99.90;;;;;;5084725;28;20004;-75
2022/05/04 12:52:42;;;;;;;;;;;13.90;99.90;;;;;;5042307;28;19963;-76
2022/05/04 12:55:07;;;;;;;;;;;13.70;99.90;;;;;;5049819;28;19967;-76
2022/05/04 12:57:32;;;;;;;;;;;13.90;99.90;;;;;;5048971;28;19921;-76
2022/05/04 12:59:58;;;;;;;;;;;14.00;99.90;;;;;;5091263;28;19931;-76
2022/05/04 13:02:24;;;;;;;;;;;14.30;99.90;;;;;;5047614;28;19932;-76
2022/05/04 13:04:49;;;;;;;;;;;14.10;99.90;;;;;;5078496;28;19924;-76
2022/05/04 13:07:15;;;;;;;;;;;14.10;99.90;;;;;;5081608;28;19927;-76
2022/05/04 13:09:42;;;;;;;;;;;14.00;99.90;;;;;;5049520;28;19921;-75
2022/05/04 13:12:10;;;;;;;;;;;13.90;99.90;;;;;;5096021;28;19990;-75
2022/05/04 13:14:37;;;;;;;;;;;13.60;99.90;;;;;;5047971;28;19986;-75
2022/05/04 13:17:03;;;;;;;;;;;13.80;99.90;;;;;;5047772;28;19921;-74
2022/05/04 13:19:28;;;;;;;;;;;13.90;99.90;;;;;;5049152;28;19978;-75
2022/05/04 13:21:54;;;;;;;;;;;14.30;99.90;;;;;;5075137;28;19994;-75
2022/05/04 13:24:19;;;;;;;;;;;14.30;99.90;;;;;;5080533;28;19920;-74
2022/05/04 13:26:45;;;;;;;;;;;14.20;99.90;;;;;;5080642;28;20012;-76
2022/05/04 13:29:11;;;;;;;;;;;14.20;99.90;;;;;;5080903;28;19921;-76
2022/05/04 13:31:36;;;;;;;;;;;14.30;99.90;;;;;;5073919;28;19943;-75
2022/05/04 13:34:02;;;;;;;;;;;14.20;99.90;;;;;;5080279;28;20370;-76
2022/05/04 13:36:27;;;;;;;;;;;14.30;99.90;;;;;;5064815;28;20340;-76
2022/05/04 13:38:53;;;;;;;;;;;14.20;99.90;;;;;;5049071;28;20024;-76
2022/05/04 13:41:18;;;;;;;;;;;14.20;99.90;;;;;;5080449;28;19974;-75
2022/05/04 13:43:44;;;;;;;;;;;14.20;99.90;;;;;;5080289;28;20008;-75
2022/05/04 13:46:09;;;;;;;;;;;14.00;99.90;;;;;;5056064;28;19963;-75
2022/05/04 13:48:35;;;;;;;;;;;13.90;99.90;;;;;;5048059;28;19921;-74
2022/05/04 13:53:45;;;;;;;;;;;13.80;99.90;;;;;;5048018;28;19920;-75
2022/05/04 13:56:11;;;;;;;;;;;14.30;99.90;;;;;;5080272;28;19947;-76
2022/05/04 13:58:36;;;;;;;;;;;14.30;99.90;;;;;;5059815;28;19928;-77
2022/05/04 14:01:02;;;;;;;;;;;14.50;99.90;;;;;;5054408;28;20457;-75
2022/05/04 14:03:27;;;;;;;;;;;14.60;99.90;;;;;;5076171;28;20398;-76
2022/05/04 14:05:53;;;;;;;;;;;14.70;99.90;;;;;;5080120;28;19927;-75
2022/05/04 14:08:19;;;;;;;;;;;14.80;99.90;;;;;;5048085;28;20263;-75
2022/05/04 14:10:47;;;;;;;;;;;15.10;99.90;;;;;;5066662;28;20374;-75
2022/05/04 14:13:13;;;;;;;;;;;15.10;99.90;;;;;;5053054;28;19920;-75
2022/05/04 14:15:39;;;;;;;;;;;15.10;99.90;;;;;;5047573;28;19924;-77
2022/05/04 14:18:05;;;;;;;;;;;15.20;99.90;;;;;;5062932;28;19921;-76
2022/05/04 14:20:31;;;;;;;;;;;15.20;99.90;;;;;;5063067;28;19927;-76
2022/05/04 14:22:57;;;;;;;;;;;15.10;99.90;;;;;;5073543;28;19955;-76
2022/05/04 14:25:22;;;;;;;;;;;15.20;99.90;;;;;;5066492;28;20044;-76
2022/05/04 14:27:48;;;;;;;;;;;15.10;99.90;;;;;;5059740;28;19921;-76
2022/05/04 14:30:15;;;;;;;;;;;15.20;99.90;;;;;;5052091;28;19943;-76
2022/05/04 14:32:41;;;;;;;;;;;14.80;99.90;;;;;;5054102;28;20293;-76